Grindsted, Denmark
Current Conditions -  °F | °C
As of 9:50 PM on Tuesday 25 Nov 2014 (Local Time) from EKBI Reporting Station
Light Fog Light Fog  
Wind Chill: 41°   Ceiling: Unl
Heat Index: 41°   Visibility: 6mi
Dew Point: 41°   Wind: 1mph
Humidity: 100%   Direction: 30°NNE
Pressure: 30.3"   Gusts: NA
Location:  55.75°N, 8.91°E
Report Text: EKBI 252050Z 03001KT 9999 R09/P1500N R27/0600D BCFG FEW02505/05 Q1026
Loading
Personal Weather Stations






























Interactive Weather Map New forecast layout! Learn more

10-Day Weather Forecast

Advertisements
Track Severe Weather on mobile